SMQ weather

Somerset Airport
Somerville, New Jersey, United States

Public forecast

Using degrees Fahrenheit for public forecast. Weather courtesy of forecast.io.

METAR (pilot weather report)

Retrieved 2019/09/23 13:53 UTC (22 minutes ago):

KSMQ 231353Z AUTO VRB04KT 8SM CLR 23/19 A2991 RMK AO2 SLP128 T02330194

TAF (pilot weather forecast)

Closest forecast is Trenton Mercer Airport, 22.0 nm (40.7 km) SSW. Retrieved 2019/09/23 12:22 UTC (2 hours ago):

TAF KTTN 231120Z 2312/2412 VRB03KT 6SM BR SCT080 BKN150 FM231300 24006KT P6SM SCT080 BKN150 FM231700 24007G17KT P6SM FEW250 FM240000 25007KT P6SM -SHRA BKN050 FM240400 27005KT P6SM SCT100